KPDT/PDT METAR and TAF weather

Enter ICAO airport designator
Station Type Date Time Source
KPDT METAR 2020/08/10 18:02 UTC NOAA

KPDT 101802Z VRB05KT 4SM HZ FEW001 27/04 A3004 RMK AO2 T02720039


Station Type Date Time Source
KPDT Decoded METAR 2020/08/10 18:02 UTC NOAA

PENDLETON MUNICIPAL AIRPORT, OR, United States (KPDT) 45-70N 118-83W 458M
Aug 10, 2020 - 02:02 PM EDT / 2020.08.10 1802 UTC
Wind: Variable at 6 MPH (5 KT):0
Visibility: 4 mile(s):0
Sky conditions: mostly clear
Weather: haze
Temperature: 81.0 F (27.2 C)
Dew Point: 39.0 F (3.9 C)
Relative Humidity: 22%
Pressure (altimeter): 30.04 in. Hg (1017 hPa)
ob: KPDT 101802Z VRB05KT 4SM HZ FEW001 27/04 A3004 RMK AO2 T02720039
cycle: 18

Station Type Date Time Source
KPDT TAF 2020/08/10 18:22 UTC NOAA

TAF KPDT 101720Z 1018/1118 VRB04KT P6SM SKC
FM102000 30010KT P6SM SKC
FM110600 23009KT P6SM SKC

Example: see airport list